sensor_id;sensor_type;location;lat;lon;timestamp;pressure;altitude;pressure_sealevel;temperature;humidity
20860;BME280;10590;48.154;11.514;2023-08-07T00:00:01;95383.66;;;11.73;72.46
20860;BME280;10590;48.154;11.514;2023-08-07T00:05:23;95390.31;;;11.67;72.56
20860;BME280;10590;48.154;11.514;2023-08-07T00:10:45;95398.91;;;11.52;73.62
20860;BME280;10590;48.154;11.514;2023-08-07T00:16:09;95395.00;;;11.49;73.77
20860;BME280;10590;48.154;11.514;2023-08-07T00:21:31;95402.75;;;11.42;73.46
20860;BME280;10590;48.154;11.514;2023-08-07T00:26:55;95405.56;;;11.45;73.99
20860;BME280;10590;48.154;11.514;2023-08-07T00:32:18;95407.56;;;11.28;74.74
20860;BME280;10590;48.154;11.514;2023-08-07T00:37:40;95415.16;;;11.17;75.58
20860;BME280;10590;48.154;11.514;2023-08-07T00:43:02;95420.41;;;11.05;77.55
20860;BME280;10590;48.154;11.514;2023-08-07T00:48:25;95407.66;;;10.81;79.66
20860;BME280;10590;48.154;11.514;2023-08-07T00:53:47;95419.31;;;10.68;81.26
20860;BME280;10590;48.154;11.514;2023-08-07T00:59:09;95415.94;;;10.50;83.71
20860;BME280;10590;48.154;11.514;2023-08-07T01:04:32;95397.28;;;10.33;85.02
20860;BME280;10590;48.154;11.514;2023-08-07T01:09:54;95407.84;;;10.20;86.50
20860;BME280;10590;48.154;11.514;2023-08-07T01:15:30;95414.88;;;10.16;88.11
20860;BME280;10590;48.154;11.514;2023-08-07T01:20:53;95397.34;;;9.98;89.57
20860;BME280;10590;48.154;11.514;2023-08-07T01:26:19;95408.97;;;9.94;89.55
20860;BME280;10590;48.154;11.514;2023-08-07T01:31:42;95413.63;;;10.05;90.32
20860;BME280;10590;48.154;11.514;2023-08-07T01:37:06;95432.78;;;9.99;89.89
20860;BME280;10590;48.154;11.514;2023-08-07T01:42:30;95433.25;;;9.92;91.00
20860;BME280;10590;48.154;11.514;2023-08-07T01:47:53;95424.94;;;9.85;91.14
20860;BME280;10590;48.154;11.514;2023-08-07T01:53:14;95432.00;;;9.72;90.97
20860;BME280;10590;48.154;11.514;2023-08-07T01:58:37;95423.25;;;9.72;91.26
20860;BME280;10590;48.154;11.514;2023-08-07T02:03:59;95436.56;;;9.72;91.94
20860;BME280;10590;48.154;11.514;2023-08-07T02:09:20;95448.47;;;9.83;92.15
20860;BME280;10590;48.154;11.514;2023-08-07T02:14:43;95442.66;;;9.81;92.09
20860;BME280;10590;48.154;11.514;2023-08-07T02:20:06;95452.84;;;9.79;91.93
20860;BME280;10590;48.154;11.514;2023-08-07T02:25:27;95449.56;;;9.73;91.58
20860;BME280;10590;48.154;11.514;2023-08-07T02:30:51;95454.75;;;9.78;90.98
20860;BME280;10590;48.154;11.514;2023-08-07T02:36:14;95453.00;;;9.82;90.26
20860;BME280;10590;48.154;11.514;2023-08-07T02:41:36;95470.72;;;9.87;91.12
20860;BME280;10590;48.154;11.514;2023-08-07T02:46:59;95476.06;;;9.87;90.19
20860;BME280;10590;48.154;11.514;2023-08-07T02:52:20;95474.66;;;9.98;90.00
20860;BME280;10590;48.154;11.514;2023-08-07T02:57:42;95464.44;;;10.00;89.24
20860;BME280;10590;48.154;11.514;2023-08-07T03:03:05;95468.53;;;9.98;88.21
20860;BME280;10590;48.154;11.514;2023-08-07T03:08:27;95484.06;;;10.04;87.67
20860;BME280;10590;48.154;11.514;2023-08-07T03:13:48;95490.63;;;10.07;86.99
20860;BME280;10590;48.154;11.514;2023-08-07T03:19:11;95473.69;;;10.11;85.75
20860;BME280;10590;48.154;11.514;2023-08-07T03:24:33;95478.88;;;10.16;84.61
20860;BME280;10590;48.154;11.514;2023-08-07T03:29:54;95489.06;;;10.14;84.74
20860;BME280;10590;48.154;11.514;2023-08-07T03:35:17;95478.09;;;10.25;84.18
20860;BME280;10590;48.154;11.514;2023-08-07T03:40:39;95494.88;;;10.34;83.00
20860;BME280;10590;48.154;11.514;2023-08-07T03:46:01;95476.66;;;10.36;82.61
20860;BME280;10590;48.154;11.514;2023-08-07T03:51:24;95492.53;;;10.41;81.28
20860;BME280;10590;48.154;11.514;2023-08-07T03:56:46;95492.69;;;10.44;80.77
20860;BME280;10590;48.154;11.514;2023-08-07T04:02:08;95504.59;;;10.47;79.94
20860;BME280;10590;48.154;11.514;2023-08-07T04:07:31;95496.44;;;10.52;80.60
20860;BME280;10590;48.154;11.514;2023-08-07T04:12:53;95516.50;;;10.58;79.44
20860;BME280;10590;48.154;11.514;2023-08-07T04:18:15;95498.00;;;10.53;79.22
20860;BME280;10590;48.154;11.514;2023-08-07T04:23:38;95506.31;;;10.60;79.14
20860;BME280;10590;48.154;11.514;2023-08-07T04:29:00;95514.13;;;10.65;77.10
20860;BME280;10590;48.154;11.514;2023-08-07T04:34:21;95529.06;;;10.66;77.01
20860;BME280;10590;48.154;11.514;2023-08-07T04:39:44;95526.69;;;10.73;76.41
20860;BME280;10590;48.154;11.514;2023-08-07T04:45:07;95532.47;;;10.75;76.05
20860;BME280;10590;48.154;11.514;2023-08-07T04:50:30;95534.03;;;10.76;76.37
20860;BME280;10590;48.154;11.514;2023-08-07T04:55:52;95555.69;;;10.83;75.14
20860;BME280;10590;48.154;11.514;2023-08-07T05:01:14;95539.22;;;10.81;74.13
20860;BME280;10590;48.154;11.514;2023-08-07T05:06:36;95553.50;;;10.85;74.58
20860;BME280;10590;48.154;11.514;2023-08-07T05:11:59;95553.97;;;10.88;73.76
20860;BME280;10590;48.154;11.514;2023-08-07T05:17:21;95548.94;;;10.86;73.82
20860;BME280;10590;48.154;11.514;2023-08-07T05:22:43;95553.00;;;10.92;73.77
20860;BME280;10590;48.154;11.514;2023-08-07T05:28:06;95550.47;;;10.96;73.66
20860;BME280;10590;48.154;11.514;2023-08-07T05:33:28;95557.56;;;10.92;73.21
20860;BME280;10590;48.154;11.514;2023-08-07T05:38:55;95561.34;;;10.91;73.24
20860;BME280;10590;48.154;11.514;2023-08-07T05:44:18;95574.69;;;10.91;72.72
20860;BME280;10590;48.154;11.514;2023-08-07T05:49:40;95590.53;;;10.96;71.68
20860;BME280;10590;48.154;11.514;2023-08-07T05:55:02;95593.03;;;11.01;71.61
20860;BME280;10590;48.154;11.514;2023-08-07T06:00:25;95574.34;;;11.01;71.72
20860;BME280;10590;48.154;11.514;2023-08-07T06:05:46;95582.34;;;11.01;71.80
20860;BME280;10590;48.154;11.514;2023-08-07T06:11:08;95606.81;;;11.11;71.24
20860;BME280;10590;48.154;11.514;2023-08-07T06:16:32;95603.22;;;11.07;71.96
20860;BME280;10590;48.154;11.514;2023-08-07T06:21:53;95604.63;;;11.05;71.19
20860;BME280;10590;48.154;11.514;2023-08-07T06:27:15;95607.13;;;11.10;70.47
20860;BME280;10590;48.154;11.514;2023-08-07T06:32:38;95606.13;;;11.40;69.65
20860;BME280;10590;48.154;11.514;2023-08-07T06:38:00;95600.19;;;11.35;69.65
20860;BME280;10590;48.154;11.514;2023-08-07T06:43:23;95607.47;;;11.55;68.20
20860;BME280;10590;48.154;11.514;2023-08-07T06:48:46;95605.06;;;11.71;68.03
20860;BME280;10590;48.154;11.514;2023-08-07T06:54:07;95606.69;;;11.93;68.00
20860;BME280;10590;48.154;11.514;2023-08-07T06:59:29;95618.38;;;12.09;66.27
20860;BME280;10590;48.154;11.514;2023-08-07T07:04:52;95626.16;;;12.52;65.05
20860;BME280;10590;48.154;11.514;2023-08-07T07:10:14;95627.78;;;12.65;63.57
20860;BME280;10590;48.154;11.514;2023-08-07T07:15:37;95617.06;;;12.65;62.77
20860;BME280;10590;48.154;11.514;2023-08-07T07:21:00;95636.09;;;12.85;61.32
20860;BME280;10590;48.154;11.514;2023-08-07T07:26:21;95641.19;;;13.19;61.78
20860;BME280;10590;48.154;11.514;2023-08-07T07:31:43;95660.84;;;13.23;61.31
20860;BME280;10590;48.154;11.514;2023-08-07T07:37:06;95663.56;;;13.35;61.48
20860;BME280;10590;48.154;11.514;2023-08-07T07:42:28;95661.78;;;13.39;60.69
20860;BME280;10590;48.154;11.514;2023-08-07T07:47:49;95664.97;;;13.21;61.61
20860;BME280;10590;48.154;11.514;2023-08-07T07:53:12;95670.00;;;13.22;61.09
20860;BME280;10590;48.154;11.514;2023-08-07T07:58:34;95687.38;;;13.16;61.94
20860;BME280;10590;48.154;11.514;2023-08-07T08:03:56;95668.63;;;12.95;61.41
20860;BME280;10590;48.154;11.514;2023-08-07T08:09:19;95696.31;;;12.79;62.21
20860;BME280;10590;48.154;11.514;2023-08-07T08:14:41;95691.69;;;12.88;62.32
20860;BME280;10590;48.154;11.514;2023-08-07T08:20:03;95707.97;;;12.83;62.33
20860;BME280;10590;48.154;11.514;2023-08-07T08:25:26;95708.53;;;12.67;62.00
20860;BME280;10590;48.154;11.514;2023-08-07T08:30:48;95702.72;;;12.86;62.60
20860;BME280;10590;48.154;11.514;2023-08-07T08:36:10;95709.09;;;13.02;61.84
20860;BME280;10590;48.154;11.514;2023-08-07T08:41:33;95720.63;;;13.15;61.55
20860;BME280;10590;48.154;11.514;2023-08-07T08:46:57;95724.03;;;12.83;62.23
20860;BME280;10590;48.154;11.514;2023-08-07T08:52:21;95720.75;;;12.98;62.42
20860;BME280;10590;48.154;11.514;2023-08-07T09:03:44;95730.22;;;13.70;59.83
20860;BME280;10590;48.154;11.514;2023-08-07T09:09:07;95735.31;;;13.18;59.70
20860;BME280;10590;48.154;11.514;2023-08-07T09:14:30;95739.69;;;13.22;60.99
20860;BME280;10590;48.154;11.514;2023-08-07T09:19:55;95745.09;;;13.34;62.21
20860;BME280;10590;48.154;11.514;2023-08-07T09:25:26;95728.19;;;13.55;60.51
20860;BME280;10590;48.154;11.514;2023-08-07T09:30:52;95727.88;;;13.68;60.42
20860;BME280;10590;48.154;11.514;2023-08-07T09:36:15;95739.97;;;13.87;60.89
20860;BME280;10590;48.154;11.514;2023-08-07T09:41:37;95736.22;;;13.88;59.00
20860;BME280;10590;48.154;11.514;2023-08-07T09:46:59;95731.31;;;14.14;58.82
20860;BME280;10590;48.154;11.514;2023-08-07T09:52:24;95735.22;;;14.29;58.28
20860;BME280;10590;48.154;11.514;2023-08-07T09:57:46;95740.19;;;15.16;58.58
20860;BME280;10590;48.154;11.514;2023-08-07T10:03:08;95730.22;;;15.16;56.71
20860;BME280;10590;48.154;11.514;2023-08-07T10:08:32;95723.00;;;15.33;55.49
20860;BME280;10590;48.154;11.514;2023-08-07T10:13:55;95736.88;;;16.22;53.72
20860;BME280;10590;48.154;11.514;2023-08-07T10:19:18;95740.13;;;17.13;51.75
20860;BME280;10590;48.154;11.514;2023-08-07T10:24:42;95727.34;;;17.30;50.97
20860;BME280;10590;48.154;11.514;2023-08-07T10:30:06;95706.94;;;17.90;49.21
20860;BME280;10590;48.154;11.514;2023-08-07T10:35:30;95718.94;;;16.77;51.50
20860;BME280;10590;48.154;11.514;2023-08-07T10:41:01;95719.75;;;16.97;50.61
20860;BME280;10590;48.154;11.514;2023-08-07T10:46:24;95709.97;;;16.88;49.86
20860;BME280;10590;48.154;11.514;2023-08-07T10:51:46;95708.25;;;17.58;48.44
20860;BME280;10590;48.154;11.514;2023-08-07T10:57:11;95691.16;;;17.31;49.92
20860;BME280;10590;48.154;11.514;2023-08-07T11:02:37;95704.22;;;17.29;49.24
20860;BME280;10590;48.154;11.514;2023-08-07T11:07:59;95699.75;;;16.98;51.00
20860;BME280;10590;48.154;11.514;2023-08-07T11:13:23;95694.34;;;17.17;47.94
20860;BME280;10590;48.154;11.514;2023-08-07T11:18:44;95692.72;;;19.22;44.73
20860;BME280;10590;48.154;11.514;2023-08-07T11:24:06;95700.53;;;16.63;50.77
20860;BME280;10590;48.154;11.514;2023-08-07T11:29:29;95698.31;;;15.86;52.62
20860;BME280;10590;48.154;11.514;2023-08-07T11:34:51;95704.59;;;15.35;54.22
20860;BME280;10590;48.154;11.514;2023-08-07T11:40:13;95720.06;;;15.10;53.74
20860;BME280;10590;48.154;11.514;2023-08-07T11:45:36;95720.09;;;15.66;52.00
20860;BME280;10590;48.154;11.514;2023-08-07T11:50:58;95714.28;;;16.27;51.08
20860;BME280;10590;48.154;11.514;2023-08-07T11:56:20;95719.06;;;16.17;50.95
20860;BME280;10590;48.154;11.514;2023-08-07T12:01:45;95713.91;;;16.60;49.52
20860;BME280;10590;48.154;11.514;2023-08-07T12:07:07;95726.38;;;19.54;43.39
20860;BME280;10590;48.154;11.514;2023-08-07T12:12:33;95726.19;;;22.57;37.98
20860;BME280;10590;48.154;11.514;2023-08-07T12:18:01;95721.75;;;18.45;44.10
20860;BME280;10590;48.154;11.514;2023-08-07T12:23:24;95739.88;;;17.38;45.85
20860;BME280;10590;48.154;11.514;2023-08-07T12:28:46;95738.91;;;17.11;46.72
20860;BME280;10590;48.154;11.514;2023-08-07T12:34:09;95744.75;;;17.13;46.79
20860;BME280;10590;48.154;11.514;2023-08-07T12:39:31;95744.53;;;17.22;46.63
20860;BME280;10590;48.154;11.514;2023-08-07T12:44:53;95754.44;;;16.47;48.35
20860;BME280;10590;48.154;11.514;2023-08-07T12:50:16;95745.66;;;16.50;48.54
20860;BME280;10590;48.154;11.514;2023-08-07T12:55:37;95753.09;;;15.94;50.25
20860;BME280;10590;48.154;11.514;2023-08-07T13:01:03;95751.13;;;17.05;49.04
20860;BME280;10590;48.154;11.514;2023-08-07T13:06:26;95744.41;;;16.64;49.04
20860;BME280;10590;48.154;11.514;2023-08-07T13:11:48;95753.00;;;17.59;44.27
20860;BME280;10590;48.154;11.514;2023-08-07T13:17:10;95752.47;;;17.92;42.27
20860;BME280;10590;48.154;11.514;2023-08-07T13:22:33;95761.31;;;20.41;39.62
20860;BME280;10590;48.154;11.514;2023-08-07T13:27:54;95777.50;;;17.50;44.96
20860;BME280;10590;48.154;11.514;2023-08-07T13:33:16;95791.59;;;16.26;46.88
20860;BME280;10590;48.154;11.514;2023-08-07T13:38:41;95800.53;;;16.14;48.09
20860;BME280;10590;48.154;11.514;2023-08-07T13:44:03;95795.69;;;16.51;47.49
20860;BME280;10590;48.154;11.514;2023-08-07T13:49:25;95797.47;;;17.10;47.04
20860;BME280;10590;48.154;11.514;2023-08-07T13:54:48;95798.22;;;16.76;45.44
20860;BME280;10590;48.154;11.514;2023-08-07T14:00:11;95795.91;;;17.09;44.22
20860;BME280;10590;48.154;11.514;2023-08-07T14:05:32;95806.75;;;16.78;45.17
20860;BME280;10590;48.154;11.514;2023-08-07T14:10:56;95809.28;;;16.71;46.34
20860;BME280;10590;48.154;11.514;2023-08-07T14:16:17;95815.34;;;16.83;46.86
20860;BME280;10590;48.154;11.514;2023-08-07T14:21:39;95822.38;;;16.88;45.99
20860;BME280;10590;48.154;11.514;2023-08-07T14:27:03;95822.81;;;16.59;44.83
20860;BME280;10590;48.154;11.514;2023-08-07T14:32:24;95852.81;;;16.73;45.06
20860;BME280;10590;48.154;11.514;2023-08-07T14:37:46;95856.78;;;16.63;47.58
20860;BME280;10590;48.154;11.514;2023-08-07T14:43:10;95875.41;;;16.24;47.57
20860;BME280;10590;48.154;11.514;2023-08-07T14:48:31;95886.50;;;15.79;50.29
20860;BME280;10590;48.154;11.514;2023-08-07T14:53:53;95875.88;;;15.46;52.67
20860;BME280;10590;48.154;11.514;2023-08-07T14:59:16;95894.78;;;16.30;50.68
20860;BME280;10590;48.154;11.514;2023-08-07T15:04:38;95894.81;;;16.02;50.17
20860;BME280;10590;48.154;11.514;2023-08-07T15:10:00;95891.03;;;15.63;50.26
20860;BME280;10590;48.154;11.514;2023-08-07T15:15:23;95903.66;;;15.75;49.60
20860;BME280;10590;48.154;11.514;2023-08-07T15:20:46;95906.94;;;15.68;50.52
20860;BME280;10590;48.154;11.514;2023-08-07T15:26:08;95905.91;;;16.56;49.19
20860;BME280;10590;48.154;11.514;2023-08-07T15:31:31;95906.19;;;16.39;47.92
20860;BME280;10590;48.154;11.514;2023-08-07T15:36:53;95914.72;;;16.69;48.85
20860;BME280;10590;48.154;11.514;2023-08-07T15:42:15;95917.72;;;15.96;51.81
20860;BME280;10590;48.154;11.514;2023-08-07T15:47:38;95917.66;;;15.56;52.37
20860;BME280;10590;48.154;11.514;2023-08-07T15:53:00;95926.34;;;15.13;53.26
20860;BME280;10590;48.154;11.514;2023-08-07T15:58:21;95934.63;;;14.95;53.64
20860;BME280;10590;48.154;11.514;2023-08-07T16:03:48;95942.22;;;14.93;54.76
20860;BME280;10590;48.154;11.514;2023-08-07T16:09:09;95950.72;;;14.83;54.96
20860;BME280;10590;48.154;11.514;2023-08-07T16:14:31;95954.00;;;14.56;54.93
20860;BME280;10590;48.154;11.514;2023-08-07T16:19:54;95965.09;;;14.33;56.58
20860;BME280;10590;48.154;11.514;2023-08-07T16:25:15;95959.88;;;13.75;62.52
20860;BME280;10590;48.154;11.514;2023-08-07T16:30:37;95961.88;;;13.57;65.74
20860;BME280;10590;48.154;11.514;2023-08-07T16:36:00;95960.50;;;13.21;67.18
20860;BME280;10590;48.154;11.514;2023-08-07T16:41:22;95964.03;;;13.43;69.76
20860;BME280;10590;48.154;11.514;2023-08-07T16:46:43;95967.00;;;13.70;70.73
20860;BME280;10590;48.154;11.514;2023-08-07T16:52:07;95953.66;;;13.83;68.97
20860;BME280;10590;48.154;11.514;2023-08-07T16:57:30;95961.53;;;14.09;69.22
20860;BME280;10590;48.154;11.514;2023-08-07T17:02:51;95967.03;;;13.91;69.83
20860;BME280;10590;48.154;11.514;2023-08-07T17:08:14;95971.34;;;14.05;69.97
20860;BME280;10590;48.154;11.514;2023-08-07T17:13:36;95959.81;;;14.25;68.73
20860;BME280;10590;48.154;11.514;2023-08-07T17:18:58;95968.50;;;14.22;69.56
20860;BME280;10590;48.154;11.514;2023-08-07T17:24:21;95947.41;;;14.32;67.39
20860;BME280;10590;48.154;11.514;2023-08-07T17:29:43;95961.13;;;14.19;69.34
20860;BME280;10590;48.154;11.514;2023-08-07T17:35:06;95967.06;;;14.24;69.02
20860;BME280;10590;48.154;11.514;2023-08-07T17:40:29;95964.25;;;14.21;68.68
20860;BME280;10590;48.154;11.514;2023-08-07T17:45:51;95960.91;;;14.24;69.03
20860;BME280;10590;48.154;11.514;2023-08-07T17:51:12;95959.75;;;14.13;68.36
20860;BME280;10590;48.154;11.514;2023-08-07T17:56:36;95963.59;;;14.24;69.02
20860;BME280;10590;48.154;11.514;2023-08-07T18:01:58;95952.88;;;14.24;68.26
20860;BME280;10590;48.154;11.514;2023-08-07T18:07:21;95966.63;;;14.22;68.66
20860;BME280;10590;48.154;11.514;2023-08-07T18:12:44;95959.13;;;14.28;69.65
20860;BME280;10590;48.154;11.514;2023-08-07T18:18:06;95946.69;;;13.90;72.66
20860;BME280;10590;48.154;11.514;2023-08-07T18:23:27;95968.59;;;14.13;73.74
20860;BME280;10590;48.154;11.514;2023-08-07T18:28:53;95969.88;;;13.86;74.07
20860;BME280;10590;48.154;11.514;2023-08-07T18:34:14;95982.16;;;13.66;71.95
20860;BME280;10590;48.154;11.514;2023-08-07T18:39:36;95988.88;;;13.52;71.01
20860;BME280;10590;48.154;11.514;2023-08-07T18:44:59;95986.56;;;13.42;71.68
20860;BME280;10590;48.154;11.514;2023-08-07T18:50:21;95989.59;;;13.40;71.31
20860;BME280;10590;48.154;11.514;2023-08-07T18:55:43;95998.50;;;13.53;70.69
20860;BME280;10590;48.154;11.514;2023-08-07T19:01:07;96007.09;;;13.37;70.84
20860;BME280;10590;48.154;11.514;2023-08-07T19:06:29;96011.81;;;13.41;71.33
20860;BME280;10590;48.154;11.514;2023-08-07T19:11:53;96013.38;;;13.42;70.78
20860;BME280;10590;48.154;11.514;2023-08-07T19:17:16;96019.66;;;13.46;70.04
20860;BME280;10590;48.154;11.514;2023-08-07T19:22:38;96022.06;;;13.38;70.53
20860;BME280;10590;48.154;11.514;2023-08-07T19:27:59;96013.09;;;13.34;70.38
20860;BME280;10590;48.154;11.514;2023-08-07T19:33:22;96016.88;;;13.33;70.99
20860;BME280;10590;48.154;11.514;2023-08-07T19:38:44;96022.44;;;13.28;71.25
20860;BME280;10590;48.154;11.514;2023-08-07T19:44:06;96013.97;;;13.18;71.52
20860;BME280;10590;48.154;11.514;2023-08-07T19:49:30;96013.50;;;13.07;71.62
20860;BME280;10590;48.154;11.514;2023-08-07T19:54:52;96023.56;;;13.10;71.36
20860;BME280;10590;48.154;11.514;2023-08-07T20:00:14;96025.47;;;13.18;71.51
20860;BME280;10590;48.154;11.514;2023-08-07T20:05:37;96030.06;;;13.00;71.31
20860;BME280;10590;48.154;11.514;2023-08-07T20:11:02;96030.84;;;13.01;71.69
20860;BME280;10590;48.154;11.514;2023-08-07T20:16:25;96038.44;;;12.82;72.22
20860;BME280;10590;48.154;11.514;2023-08-07T20:21:50;96040.50;;;12.85;72.29
20860;BME280;10590;48.154;11.514;2023-08-07T20:27:12;96025.88;;;12.65;72.55
20860;BME280;10590;48.154;11.514;2023-08-07T20:32:33;96041.78;;;12.70;73.12
20860;BME280;10590;48.154;11.514;2023-08-07T20:37:56;96032.03;;;12.65;72.84
20860;BME280;10590;48.154;11.514;2023-08-07T20:43:18;96025.25;;;12.68;73.08
20860;BME280;10590;48.154;11.514;2023-08-07T20:48:40;96025.13;;;12.56;73.29
20860;BME280;10590;48.154;11.514;2023-08-07T20:54:03;96015.34;;;12.60;72.40
20860;BME280;10590;48.154;11.514;2023-08-07T20:59:24;96024.63;;;12.62;72.92
20860;BME280;10590;48.154;11.514;2023-08-07T21:04:46;96036.31;;;12.49;72.84
20860;BME280;10590;48.154;11.514;2023-08-07T21:10:10;96039.75;;;12.50;73.12
20860;BME280;10590;48.154;11.514;2023-08-07T21:15:32;96021.84;;;12.33;73.56
20860;BME280;10590;48.154;11.514;2023-08-07T21:20:54;96005.28;;;12.13;73.46
20860;BME280;10590;48.154;11.514;2023-08-07T21:26:17;96014.59;;;12.33;73.17
20860;BME280;10590;48.154;11.514;2023-08-07T21:31:39;96015.53;;;12.46;72.67
20860;BME280;10590;48.154;11.514;2023-08-07T21:37:01;96008.72;;;12.57;71.60
20860;BME280;10590;48.154;11.514;2023-08-07T21:42:24;96006.22;;;12.61;70.51
20860;BME280;10590;48.154;11.514;2023-08-07T21:47:48;95996.91;;;12.58;72.06
20860;BME280;10590;48.154;11.514;2023-08-07T21:53:10;96001.63;;;12.61;71.58
20860;BME280;10590;48.154;11.514;2023-08-07T21:58:33;96000.06;;;12.60;71.26
20860;BME280;10590;48.154;11.514;2023-08-07T22:03:54;95983.06;;;12.56;71.24
20860;BME280;10590;48.154;11.514;2023-08-07T22:09:16;95997.50;;;12.72;71.51
20860;BME280;10590;48.154;11.514;2023-08-07T22:14:39;95995.94;;;12.71;71.70
20860;BME280;10590;48.154;11.514;2023-08-07T22:20:01;96000.38;;;12.67;71.41
20860;BME280;10590;48.154;11.514;2023-08-07T22:25:23;95984.94;;;12.64;71.55
20860;BME280;10590;48.154;11.514;2023-08-07T22:30:46;95987.28;;;12.66;71.40
20860;BME280;10590;48.154;11.514;2023-08-07T22:36:08;95985.72;;;12.65;71.24
20860;BME280;10590;48.154;11.514;2023-08-07T22:41:31;95980.97;;;12.70;71.34
20860;BME280;10590;48.154;11.514;2023-08-07T22:46:55;95978.81;;;12.55;72.25
20860;BME280;10590;48.154;11.514;2023-08-07T22:52:16;95981.34;;;12.52;72.30
20860;BME280;10590;48.154;11.514;2023-08-07T22:57:38;95978.69;;;12.43;72.08
20860;BME280;10590;48.154;11.514;2023-08-07T23:03:01;95978.06;;;12.37;72.29
20860;BME280;10590;48.154;11.514;2023-08-07T23:08:23;95977.91;;;12.34;72.76
20860;BME280;10590;48.154;11.514;2023-08-07T23:13:45;95974.47;;;12.25;73.07
20860;BME280;10590;48.154;11.514;2023-08-07T23:19:08;95979.97;;;12.20;72.75
20860;BME280;10590;48.154;11.514;2023-08-07T23:24:30;95975.06;;;12.13;73.09
20860;BME280;10590;48.154;11.514;2023-08-07T23:29:52;95965.00;;;12.10;73.07
20860;BME280;10590;48.154;11.514;2023-08-07T23:35:15;95965.81;;;11.93;73.62
20860;BME280;10590;48.154;11.514;2023-08-07T23:40:37;95958.09;;;11.92;72.87
20860;BME280;10590;48.154;11.514;2023-08-07T23:46:00;95944.25;;;11.90;72.53
20860;BME280;10590;48.154;11.514;2023-08-07T23:51:24;95951.97;;;11.91;72.61
20860;BME280;10590;48.154;11.514;2023-08-07T23:56:46;95955.41;;;12.00;72.30
